sensor_id;sensor_type;location;lat;lon;timestamp;pressure;altitude;pressure_sealevel;temperature;humidity
81224;BME280;70698;44.402;18.522;2023-07-29T00:01:33;97295.88;;;19.01;73.14
81224;BME280;70698;44.402;18.522;2023-07-29T00:03:59;97296.94;;;19.12;71.85
81224;BME280;70698;44.402;18.522;2023-07-29T00:06:24;97296.22;;;19.16;72.47
81224;BME280;70698;44.402;18.522;2023-07-29T00:08:50;97300.97;;;19.14;72.50
81224;BME280;70698;44.402;18.522;2023-07-29T00:11:16;97300.97;;;19.14;72.19
81224;BME280;70698;44.402;18.522;2023-07-29T00:13:41;97297.84;;;19.06;71.88
81224;BME280;70698;44.402;18.522;2023-07-29T00:16:07;97300.53;;;19.17;70.74
81224;BME280;70698;44.402;18.522;2023-07-29T00:18:32;97301.09;;;18.96;73.41
81224;BME280;70698;44.402;18.522;2023-07-29T00:20:58;97298.63;;;18.83;74.16
81224;BME280;70698;44.402;18.522;2023-07-29T00:23:24;97299.34;;;18.90;73.51
81224;BME280;70698;44.402;18.522;2023-07-29T00:25:49;97278.28;;;18.88;72.66
81224;BME280;70698;44.402;18.522;2023-07-29T00:28:15;97289.28;;;18.92;72.06
81224;BME280;70698;44.402;18.522;2023-07-29T00:30:40;97291.13;;;19.03;71.73
81224;BME280;70698;44.402;18.522;2023-07-29T00:33:06;97286.72;;;19.09;71.46
81224;BME280;70698;44.402;18.522;2023-07-29T00:35:32;97281.66;;;19.07;72.00
81224;BME280;70698;44.402;18.522;2023-07-29T00:37:59;97281.50;;;19.14;71.41
81224;BME280;70698;44.402;18.522;2023-07-29T00:40:28;97280.94;;;19.12;71.68
81224;BME280;70698;44.402;18.522;2023-07-29T00:42:53;97263.56;;;19.09;71.28
81224;BME280;70698;44.402;18.522;2023-07-29T00:45:19;97269.03;;;19.03;72.08
81224;BME280;70698;44.402;18.522;2023-07-29T00:47:45;97254.06;;;18.90;72.34
81224;BME280;70698;44.402;18.522;2023-07-29T00:50:11;97266.34;;;18.79;73.45
81224;BME280;70698;44.402;18.522;2023-07-29T00:52:38;97258.19;;;18.51;74.60
81224;BME280;70698;44.402;18.522;2023-07-29T00:55:05;97265.44;;;18.62;74.10
81224;BME280;70698;44.402;18.522;2023-07-29T00:57:31;97263.53;;;18.51;74.44
81224;BME280;70698;44.402;18.522;2023-07-29T00:59:57;97251.34;;;18.43;74.64
81224;BME280;70698;44.402;18.522;2023-07-29T01:02:24;97264.09;;;18.41;74.94
81224;BME280;70698;44.402;18.522;2023-07-29T01:04:57;97257.25;;;18.45;74.41
81224;BME280;70698;44.402;18.522;2023-07-29T01:10:19;97271.56;;;18.63;73.82
81224;BME280;70698;44.402;18.522;2023-07-29T01:12:53;97268.38;;;18.42;74.49
81224;BME280;70698;44.402;18.522;2023-07-29T01:15:31;97272.16;;;18.35;74.99
81224;BME280;70698;44.402;18.522;2023-07-29T01:18:05;97267.44;;;18.48;73.33
81224;BME280;70698;44.402;18.522;2023-07-29T01:20:37;97274.94;;;18.40;74.52
81224;BME280;70698;44.402;18.522;2023-07-29T01:23:04;97277.66;;;18.52;73.39
81224;BME280;70698;44.402;18.522;2023-07-29T01:25:30;97282.09;;;18.28;74.97
81224;BME280;70698;44.402;18.522;2023-07-29T01:27:56;97288.47;;;18.27;74.83
81224;BME280;70698;44.402;18.522;2023-07-29T01:30:28;97278.59;;;18.16;75.44
81224;BME280;70698;44.402;18.522;2023-07-29T01:32:58;97277.69;;;18.22;75.37
81224;BME280;70698;44.402;18.522;2023-07-29T01:35:36;97272.94;;;18.12;75.71
81224;BME280;70698;44.402;18.522;2023-07-29T01:38:08;97282.97;;;17.80;76.79
81224;BME280;70698;44.402;18.522;2023-07-29T01:40:35;97274.50;;;17.72;78.00
81224;BME280;70698;44.402;18.522;2023-07-29T01:43:01;97274.84;;;17.75;77.13
81224;BME280;70698;44.402;18.522;2023-07-29T01:45:28;97268.59;;;17.70;77.50
81224;BME280;70698;44.402;18.522;2023-07-29T01:47:57;97267.56;;;17.52;78.19
81224;BME280;70698;44.402;18.522;2023-07-29T01:50:22;97267.69;;;17.57;78.26
81224;BME280;70698;44.402;18.522;2023-07-29T01:52:48;97268.13;;;17.54;78.17
81224;BME280;70698;44.402;18.522;2023-07-29T01:55:14;97259.88;;;17.44;78.63
81224;BME280;70698;44.402;18.522;2023-07-29T01:57:39;97264.09;;;17.52;77.96
81224;BME280;70698;44.402;18.522;2023-07-29T02:00:06;97273.00;;;17.57;78.07
81224;BME280;70698;44.402;18.522;2023-07-29T02:02:39;97267.97;;;17.86;76.41
81224;BME280;70698;44.402;18.522;2023-07-29T02:05:05;97262.44;;;17.87;76.58
81224;BME280;70698;44.402;18.522;2023-07-29T02:07:31;97268.78;;;18.16;73.54
81224;BME280;70698;44.402;18.522;2023-07-29T02:09:56;97271.09;;;18.24;73.46
81224;BME280;70698;44.402;18.522;2023-07-29T02:12:22;97268.81;;;18.28;72.98
81224;BME280;70698;44.402;18.522;2023-07-29T02:14:47;97267.75;;;18.29;73.07
81224;BME280;70698;44.402;18.522;2023-07-29T02:17:13;97274.66;;;18.18;73.74
81224;BME280;70698;44.402;18.522;2023-07-29T02:19:38;97280.09;;;18.23;73.90
81224;BME280;70698;44.402;18.522;2023-07-29T02:22:04;97270.84;;;18.14;74.14
81224;BME280;70698;44.402;18.522;2023-07-29T02:24:30;97284.66;;;17.93;75.51
81224;BME280;70698;44.402;18.522;2023-07-29T02:26:56;97280.09;;;17.82;76.09
81224;BME280;70698;44.402;18.522;2023-07-29T02:29:21;97282.97;;;17.80;75.92
81224;BME280;70698;44.402;18.522;2023-07-29T02:31:47;97276.94;;;17.73;76.04
81224;BME280;70698;44.402;18.522;2023-07-29T02:34:13;97286.50;;;17.74;76.16
81224;BME280;70698;44.402;18.522;2023-07-29T02:36:39;97292.22;;;17.59;77.29
81224;BME280;70698;44.402;18.522;2023-07-29T02:39:05;97292.22;;;17.59;77.22
81224;BME280;70698;44.402;18.522;2023-07-29T02:41:31;97289.75;;;17.40;77.77
81224;BME280;70698;44.402;18.522;2023-07-29T02:43:57;97300.94;;;17.48;77.96
81224;BME280;70698;44.402;18.522;2023-07-29T02:46:22;97296.78;;;17.34;78.04
81224;BME280;70698;44.402;18.522;2023-07-29T02:48:49;97281.44;;;17.18;78.75
81224;BME280;70698;44.402;18.522;2023-07-29T02:51:14;97302.75;;;17.30;78.60
81224;BME280;70698;44.402;18.522;2023-07-29T02:53:40;97301.06;;;17.35;78.45
81224;BME280;70698;44.402;18.522;2023-07-29T02:56:05;97297.75;;;17.21;79.13
81224;BME280;70698;44.402;18.522;2023-07-29T02:58:34;97288.19;;;17.14;78.89
81224;BME280;70698;44.402;18.522;2023-07-29T03:01:04;97289.09;;;17.26;78.18
81224;BME280;70698;44.402;18.522;2023-07-29T03:03:31;97297.72;;;17.40;77.98
81224;BME280;70698;44.402;18.522;2023-07-29T03:06:02;97306.34;;;17.53;76.97
81224;BME280;70698;44.402;18.522;2023-07-29T03:08:28;97304.25;;;17.62;76.51
81224;BME280;70698;44.402;18.522;2023-07-29T03:10:54;97297.59;;;17.71;75.30
81224;BME280;70698;44.402;18.522;2023-07-29T03:13:20;97305.38;;;17.73;75.28
81224;BME280;70698;44.402;18.522;2023-07-29T03:15:45;97304.56;;;17.72;74.76
81224;BME280;70698;44.402;18.522;2023-07-29T03:18:11;97287.84;;;17.65;75.13
81224;BME280;70698;44.402;18.522;2023-07-29T03:20:39;97296.56;;;17.72;74.75
81224;BME280;70698;44.402;18.522;2023-07-29T03:23:05;97286.69;;;17.61;75.06
81224;BME280;70698;44.402;18.522;2023-07-29T03:25:30;97296.66;;;17.66;74.93
81224;BME280;70698;44.402;18.522;2023-07-29T03:27:56;97296.03;;;17.63;74.87
81224;BME280;70698;44.402;18.522;2023-07-29T03:30:22;97305.56;;;17.53;76.04
81224;BME280;70698;44.402;18.522;2023-07-29T03:32:49;97304.31;;;17.37;76.90
81224;BME280;70698;44.402;18.522;2023-07-29T03:35:15;97293.81;;;17.24;77.73
81224;BME280;70698;44.402;18.522;2023-07-29T03:37:41;97302.22;;;17.21;78.04
81224;BME280;70698;44.402;18.522;2023-07-29T03:40:07;97292.66;;;17.38;76.70
81224;BME280;70698;44.402;18.522;2023-07-29T03:42:33;97301.34;;;17.45;75.81
81224;BME280;70698;44.402;18.522;2023-07-29T03:44:58;97300.19;;;17.23;77.44
81224;BME280;70698;44.402;18.522;2023-07-29T03:47:24;97303.25;;;17.20;77.54
81224;BME280;70698;44.402;18.522;2023-07-29T03:49:51;97295.59;;;17.12;77.98
81224;BME280;70698;44.402;18.522;2023-07-29T03:52:20;97296.09;;;17.02;78.42
81224;BME280;70698;44.402;18.522;2023-07-29T03:54:45;97309.63;;;16.94;79.15
81224;BME280;70698;44.402;18.522;2023-07-29T03:57:11;97307.94;;;17.00;78.47
81224;BME280;70698;44.402;18.522;2023-07-29T03:59:36;97310.44;;;16.95;78.79
81224;BME280;70698;44.402;18.522;2023-07-29T04:02:02;97291.63;;;16.78;79.61
81224;BME280;70698;44.402;18.522;2023-07-29T04:04:28;97313.56;;;16.92;79.50
81224;BME280;70698;44.402;18.522;2023-07-29T04:06:55;97312.22;;;17.01;78.54
81224;BME280;70698;44.402;18.522;2023-07-29T04:09:21;97319.34;;;17.07;77.73
81224;BME280;70698;44.402;18.522;2023-07-29T04:11:46;97308.88;;;17.12;77.46
81224;BME280;70698;44.402;18.522;2023-07-29T04:14:12;97305.03;;;17.08;77.83
81224;BME280;70698;44.402;18.522;2023-07-29T04:16:37;97302.06;;;17.16;77.26
81224;BME280;70698;44.402;18.522;2023-07-29T04:19:03;97303.88;;;17.22;76.76
81224;BME280;70698;44.402;18.522;2023-07-29T04:21:28;97311.25;;;17.38;75.77
81224;BME280;70698;44.402;18.522;2023-07-29T04:23:54;97316.25;;;17.46;75.41
81224;BME280;70698;44.402;18.522;2023-07-29T04:26:20;97306.25;;;17.48;75.07
81224;BME280;70698;44.402;18.522;2023-07-29T04:28:45;97325.34;;;17.57;75.12
81224;BME280;70698;44.402;18.522;2023-07-29T04:31:11;97312.94;;;17.51;75.40
81224;BME280;70698;44.402;18.522;2023-07-29T04:33:36;97304.16;;;17.50;76.27
81224;BME280;70698;44.402;18.522;2023-07-29T04:36:02;97306.81;;;17.50;75.22
81224;BME280;70698;44.402;18.522;2023-07-29T04:38:31;97306.34;;;17.53;75.21
81224;BME280;70698;44.402;18.522;2023-07-29T04:41:00;97312.44;;;17.60;75.32
81224;BME280;70698;44.402;18.522;2023-07-29T04:43:32;97319.31;;;17.68;75.01
81224;BME280;70698;44.402;18.522;2023-07-29T04:45:58;97315.09;;;17.79;74.20
81224;BME280;70698;44.402;18.522;2023-07-29T04:48:24;97319.88;;;17.88;73.65
81224;BME280;70698;44.402;18.522;2023-07-29T04:50:50;97313.03;;;17.81;75.17
81224;BME280;70698;44.402;18.522;2023-07-29T04:53:15;97326.03;;;17.71;76.19
81224;BME280;70698;44.402;18.522;2023-07-29T04:55:44;97327.66;;;17.72;76.34
81224;BME280;70698;44.402;18.522;2023-07-29T04:58:09;97331.63;;;17.81;76.52
81224;BME280;70698;44.402;18.522;2023-07-29T05:00:35;97337.38;;;17.96;76.01
81224;BME280;70698;44.402;18.522;2023-07-29T05:03:02;97332.25;;;18.13;74.97
81224;BME280;70698;44.402;18.522;2023-07-29T05:05:28;97330.28;;;18.20;75.43
81224;BME280;70698;44.402;18.522;2023-07-29T05:07:54;97321.41;;;18.26;74.89
81224;BME280;70698;44.402;18.522;2023-07-29T05:10:19;97313.69;;;18.36;75.40
81224;BME280;70698;44.402;18.522;2023-07-29T05:12:45;97324.66;;;18.58;74.10
81224;BME280;70698;44.402;18.522;2023-07-29T05:15:11;97320.88;;;18.77;72.26
81224;BME280;70698;44.402;18.522;2023-07-29T05:17:37;97319.84;;;19.01;71.07
81224;BME280;70698;44.402;18.522;2023-07-29T05:20:04;97323.31;;;19.13;71.01
81224;BME280;70698;44.402;18.522;2023-07-29T05:22:29;97327.63;;;19.26;70.69
81224;BME280;70698;44.402;18.522;2023-07-29T05:24:55;97316.84;;;19.32;71.49
81224;BME280;70698;44.402;18.522;2023-07-29T05:27:20;97324.34;;;19.35;70.71
81224;BME280;70698;44.402;18.522;2023-07-29T05:29:47;97320.75;;;19.42;71.33
81224;BME280;70698;44.402;18.522;2023-07-29T05:32:13;97326.31;;;19.28;71.92
81224;BME280;70698;44.402;18.522;2023-07-29T05:34:41;97331.56;;;19.12;72.24
81224;BME280;70698;44.402;18.522;2023-07-29T05:37:06;97340.22;;;19.19;72.61
81224;BME280;70698;44.402;18.522;2023-07-29T05:39:32;97333.84;;;19.20;72.20
81224;BME280;70698;44.402;18.522;2023-07-29T05:41:58;97329.56;;;19.30;71.69
81224;BME280;70698;44.402;18.522;2023-07-29T05:44:24;97332.56;;;19.34;71.62
81224;BME280;70698;44.402;18.522;2023-07-29T05:46:50;97335.13;;;19.41;71.20
81224;BME280;70698;44.402;18.522;2023-07-29T05:49:15;97342.91;;;19.42;70.18
81224;BME280;70698;44.402;18.522;2023-07-29T05:51:42;97344.84;;;19.58;69.91
81224;BME280;70698;44.402;18.522;2023-07-29T05:54:08;97342.34;;;19.52;70.32
81224;BME280;70698;44.402;18.522;2023-07-29T05:56:34;97351.69;;;19.66;70.55
81224;BME280;70698;44.402;18.522;2023-07-29T05:58:59;97347.63;;;19.75;70.17
81224;BME280;70698;44.402;18.522;2023-07-29T06:01:26;97356.41;;;19.87;72.21
81224;BME280;70698;44.402;18.522;2023-07-29T06:03:51;97351.75;;;19.94;71.99
81224;BME280;70698;44.402;18.522;2023-07-29T06:06:17;97351.75;;;19.94;71.21
81224;BME280;70698;44.402;18.522;2023-07-29T06:08:43;97352.44;;;20.01;70.08
81224;BME280;70698;44.402;18.522;2023-07-29T06:11:08;97359.56;;;20.12;70.30
81224;BME280;70698;44.402;18.522;2023-07-29T06:13:34;97360.25;;;20.19;70.18
81224;BME280;70698;44.402;18.522;2023-07-29T06:16:00;97342.16;;;20.22;69.35
81224;BME280;70698;44.402;18.522;2023-07-29T06:18:25;97363.72;;;20.32;69.16
81224;BME280;70698;44.402;18.522;2023-07-29T06:20:51;97367.44;;;20.47;68.26
81224;BME280;70698;44.402;18.522;2023-07-29T06:23:17;97356.81;;;20.64;67.57
81224;BME280;70698;44.402;18.522;2023-07-29T06:25:44;97362.41;;;20.79;66.65
81224;BME280;70698;44.402;18.522;2023-07-29T06:28:09;97360.56;;;20.96;65.14
81224;BME280;70698;44.402;18.522;2023-07-29T06:30:35;97365.69;;;21.15;65.28
81224;BME280;70698;44.402;18.522;2023-07-29T06:33:01;97367.72;;;21.24;64.55
81224;BME280;70698;44.402;18.522;2023-07-29T06:35:28;97370.69;;;21.28;62.97
81224;BME280;70698;44.402;18.522;2023-07-29T06:37:54;97365.19;;;21.34;62.53
81224;BME280;70698;44.402;18.522;2023-07-29T06:40:19;97358.75;;;21.52;61.27
81224;BME280;70698;44.402;18.522;2023-07-29T06:42:45;97362.00;;;21.54;61.07
81224;BME280;70698;44.402;18.522;2023-07-29T06:45:11;97362.94;;;21.65;61.85
81224;BME280;70698;44.402;18.522;2023-07-29T06:47:37;97354.81;;;21.76;61.76
81224;BME280;70698;44.402;18.522;2023-07-29T06:50:03;97355.00;;;21.92;61.44
81224;BME280;70698;44.402;18.522;2023-07-29T06:52:28;97356.22;;;22.01;59.80
81224;BME280;70698;44.402;18.522;2023-07-29T06:54:54;97360.34;;;22.13;59.74
81224;BME280;70698;44.402;18.522;2023-07-29T06:57:20;97356.44;;;22.21;59.73
81224;BME280;70698;44.402;18.522;2023-07-29T06:59:45;97338.75;;;22.20;59.23
81224;BME280;70698;44.402;18.522;2023-07-29T07:02:11;97350.13;;;22.32;59.22
81224;BME280;70698;44.402;18.522;2023-07-29T07:04:36;97352.41;;;22.45;59.88
81224;BME280;70698;44.402;18.522;2023-07-29T07:07:02;97348.22;;;22.54;59.85
81224;BME280;70698;44.402;18.522;2023-07-29T07:09:28;97353.22;;;22.72;60.30
81224;BME280;70698;44.402;18.522;2023-07-29T07:11:53;97358.72;;;22.88;59.70
81224;BME280;70698;44.402;18.522;2023-07-29T07:14:19;97352.38;;;22.99;59.45
81224;BME280;70698;44.402;18.522;2023-07-29T07:16:44;97354.00;;;23.00;61.29
81224;BME280;70698;44.402;18.522;2023-07-29T07:19:10;97347.69;;;23.16;61.59
81224;BME280;70698;44.402;18.522;2023-07-29T07:21:36;97349.88;;;23.24;61.71
81224;BME280;70698;44.402;18.522;2023-07-29T07:24:02;97351.88;;;23.39;61.60
81224;BME280;70698;44.402;18.522;2023-07-29T07:26:27;97349.47;;;23.42;60.55
81224;BME280;70698;44.402;18.522;2023-07-29T07:28:53;97350.09;;;23.49;58.36
81224;BME280;70698;44.402;18.522;2023-07-29T07:31:19;97359.81;;;23.61;59.05
81224;BME280;70698;44.402;18.522;2023-07-29T07:33:44;97353.94;;;23.69;59.91
81224;BME280;70698;44.402;18.522;2023-07-29T07:36:10;97346.75;;;23.79;59.95
81224;BME280;70698;44.402;18.522;2023-07-29T07:38:35;97359.38;;;23.84;59.62
81224;BME280;70698;44.402;18.522;2023-07-29T07:41:02;97358.34;;;23.90;58.34
81224;BME280;70698;44.402;18.522;2023-07-29T07:43:27;97356.25;;;24.12;58.93
81224;BME280;70698;44.402;18.522;2023-07-29T07:46:00;97349.34;;;24.21;57.00
81224;BME280;70698;44.402;18.522;2023-07-29T07:48:27;97350.94;;;24.17;55.37
81224;BME280;70698;44.402;18.522;2023-07-29T07:50:53;97340.50;;;24.31;56.98
81224;BME280;70698;44.402;18.522;2023-07-29T07:53:18;97345.34;;;24.34;54.59
81224;BME280;70698;44.402;18.522;2023-07-29T07:55:45;97345.66;;;24.48;54.46
81224;BME280;70698;44.402;18.522;2023-07-29T07:58:11;97337.63;;;24.68;53.84
81224;BME280;70698;44.402;18.522;2023-07-29T08:00:36;97344.63;;;24.79;53.20
81224;BME280;70698;44.402;18.522;2023-07-29T08:03:02;97343.81;;;24.83;51.85
81224;BME280;70698;44.402;18.522;2023-07-29T08:05:28;97344.38;;;24.85;54.72
81224;BME280;70698;44.402;18.522;2023-07-29T08:07:54;97337.41;;;24.95;52.52
81224;BME280;70698;44.402;18.522;2023-07-29T08:10:19;97329.84;;;25.17;52.21
81224;BME280;70698;44.402;18.522;2023-07-29T08:12:45;97327.41;;;25.30;50.83
81224;BME280;70698;44.402;18.522;2023-07-29T08:15:10;97316.38;;;25.22;51.11
81224;BME280;70698;44.402;18.522;2023-07-29T08:17:36;97332.75;;;25.36;53.72
81224;BME280;70698;44.402;18.522;2023-07-29T08:20:02;97328.44;;;25.50;52.22
81224;BME280;70698;44.402;18.522;2023-07-29T08:22:27;97328.97;;;25.62;52.13
81224;BME280;70698;44.402;18.522;2023-07-29T08:24:53;97311.19;;;25.66;49.77
81224;BME280;70698;44.402;18.522;2023-07-29T08:27:18;97313.34;;;25.74;51.68
81224;BME280;70698;44.402;18.522;2023-07-29T08:29:44;97313.81;;;25.86;52.43
81224;BME280;70698;44.402;18.522;2023-07-29T08:32:09;97306.25;;;25.93;50.53
81224;BME280;70698;44.402;18.522;2023-07-29T08:34:35;97309.81;;;25.79;49.90
81224;BME280;70698;44.402;18.522;2023-07-29T08:37:01;97309.09;;;26.12;50.64
81224;BME280;70698;44.402;18.522;2023-07-29T08:39:27;97307.66;;;26.40;50.21
81224;BME280;70698;44.402;18.522;2023-07-29T08:42:04;97298.69;;;26.49;47.58
81224;BME280;70698;44.402;18.522;2023-07-29T08:44:36;97296.19;;;26.58;50.24
81224;BME280;70698;44.402;18.522;2023-07-29T08:47:05;97287.84;;;26.60;49.10
81224;BME280;70698;44.402;18.522;2023-07-29T08:49:31;97290.75;;;26.63;47.52
81224;BME280;70698;44.402;18.522;2023-07-29T08:51:57;97284.47;;;26.73;46.71
81224;BME280;70698;44.402;18.522;2023-07-29T08:54:23;97290.06;;;26.86;47.72
81224;BME280;70698;44.402;18.522;2023-07-29T08:56:50;97275.44;;;26.92;45.57
81224;BME280;70698;44.402;18.522;2023-07-29T08:59:16;97288.09;;;27.21;46.32
81224;BME280;70698;44.402;18.522;2023-07-29T09:01:42;97284.13;;;27.42;46.42
81224;BME280;70698;44.402;18.522;2023-07-29T09:04:08;97278.72;;;27.42;46.29
81224;BME280;70698;44.402;18.522;2023-07-29T09:06:35;97285.66;;;27.53;45.84
81224;BME280;70698;44.402;18.522;2023-07-29T09:09:03;97279.66;;;27.56;44.71
81224;BME280;70698;44.402;18.522;2023-07-29T09:11:29;97280.03;;;27.50;45.69
81224;BME280;70698;44.402;18.522;2023-07-29T09:13:55;97276.94;;;27.80;45.65
81224;BME280;70698;44.402;18.522;2023-07-29T09:16:21;97278.13;;;27.93;44.37
81224;BME280;70698;44.402;18.522;2023-07-29T09:18:50;97266.94;;;27.80;43.73
81224;BME280;70698;44.402;18.522;2023-07-29T09:21:25;97264.22;;;28.04;45.95
81224;BME280;70698;44.402;18.522;2023-07-29T09:23:52;97266.53;;;28.11;45.40
81224;BME280;70698;44.402;18.522;2023-07-29T09:26:25;97262.22;;;28.10;44.26
81224;BME280;70698;44.402;18.522;2023-07-29T09:28:53;97267.50;;;28.20;45.39
81224;BME280;70698;44.402;18.522;2023-07-29T09:31:20;97267.41;;;28.06;45.21
81224;BME280;70698;44.402;18.522;2023-07-29T09:33:45;97257.59;;;28.15;45.30
81224;BME280;70698;44.402;18.522;2023-07-29T09:36:11;97259.47;;;28.15;43.75
81224;BME280;70698;44.402;18.522;2023-07-29T09:38:37;97260.53;;;28.19;44.40
81224;BME280;70698;44.402;18.522;2023-07-29T09:41:03;97253.78;;;28.35;43.86
81224;BME280;70698;44.402;18.522;2023-07-29T09:43:30;97247.03;;;28.51;42.83
81224;BME280;70698;44.402;18.522;2023-07-29T09:46:03;97251.06;;;28.54;43.84
81224;BME280;70698;44.402;18.522;2023-07-29T09:48:33;97261.66;;;28.50;42.18
81224;BME280;70698;44.402;18.522;2023-07-29T09:50:59;97252.81;;;28.45;42.21
81224;BME280;70698;44.402;18.522;2023-07-29T09:53:25;97258.88;;;28.55;42.76
81224;BME280;70698;44.402;18.522;2023-07-29T09:55:53;97259.31;;;28.62;41.97
81224;BME280;70698;44.402;18.522;2023-07-29T09:58:28;97262.88;;;28.77;41.25
81224;BME280;70698;44.402;18.522;2023-07-29T10:00:53;97265.50;;;28.82;42.25
81224;BME280;70698;44.402;18.522;2023-07-29T10:03:21;97259.56;;;28.80;40.57
81224;BME280;70698;44.402;18.522;2023-07-29T10:05:47;97261.53;;;28.93;42.37
81224;BME280;70698;44.402;18.522;2023-07-29T10:08:13;97267.69;;;29.12;41.64
81224;BME280;70698;44.402;18.522;2023-07-29T10:10:42;97261.00;;;29.50;40.82
81224;BME280;70698;44.402;18.522;2023-07-29T10:13:07;97261.22;;;29.40;40.79
81224;BME280;70698;44.402;18.522;2023-07-29T10:15:34;97260.13;;;29.41;42.19
81224;BME280;70698;44.402;18.522;2023-07-29T10:18:01;97257.47;;;29.23;39.87
81224;BME280;70698;44.402;18.522;2023-07-29T10:20:29;97257.63;;;29.59;40.98
81224;BME280;70698;44.402;18.522;2023-07-29T10:22:56;97250.09;;;29.56;40.46
81224;BME280;70698;44.402;18.522;2023-07-29T10:25:24;97261.22;;;29.40;40.15
81224;BME280;70698;44.402;18.522;2023-07-29T10:27:56;97249.75;;;29.84;41.31
81224;BME280;70698;44.402;18.522;2023-07-29T10:30:25;97241.75;;;29.93;39.35
81224;BME280;70698;44.402;18.522;2023-07-29T10:32:54;97249.56;;;29.94;38.80
81224;BME280;70698;44.402;18.522;2023-07-29T10:35:23;97258.47;;;30.45;38.36
81224;BME280;70698;44.402;18.522;2023-07-29T10:37:50;97246.50;;;30.46;38.96
81224;BME280;70698;44.402;18.522;2023-07-29T10:40:16;97241.28;;;29.64;37.36
81224;BME280;70698;44.402;18.522;2023-07-29T10:43:07;97238.25;;;30.28;39.77
81224;BME280;70698;44.402;18.522;2023-07-29T10:45:41;97237.63;;;30.98;37.83
81224;BME280;70698;44.402;18.522;2023-07-29T10:48:11;97234.59;;;31.00;36.37
81224;BME280;70698;44.402;18.522;2023-07-29T10:50:38;97230.78;;;30.48;35.81
81224;BME280;70698;44.402;18.522;2023-07-29T10:53:04;97227.16;;;31.05;35.78
81224;BME280;70698;44.402;18.522;2023-07-29T10:55:33;97231.31;;;31.42;34.20
81224;BME280;70698;44.402;18.522;2023-07-29T10:58:15;97219.09;;;31.23;34.72
81224;BME280;70698;44.402;18.522;2023-07-29T11:00:43;97227.78;;;31.33;36.48
81224;BME280;70698;44.402;18.522;2023-07-29T11:03:09;97225.53;;;31.44;33.63
81224;BME280;70698;44.402;18.522;2023-07-29T11:05:46;97226.44;;;31.00;33.32
81224;BME280;70698;44.402;18.522;2023-07-29T11:08:26;97228.34;;;31.22;34.39
81224;BME280;70698;44.402;18.522;2023-07-29T11:11:05;97226.41;;;31.53;34.11
81224;BME280;70698;44.402;18.522;2023-07-29T11:13:35;97221.66;;;31.67;34.49
81224;BME280;70698;44.402;18.522;2023-07-29T11:16:02;97219.03;;;32.19;33.52
81224;BME280;70698;44.402;18.522;2023-07-29T11:18:33;97212.25;;;31.73;32.88
81224;BME280;70698;44.402;18.522;2023-07-29T11:21:03;97221.06;;;31.87;32.98
81224;BME280;70698;44.402;18.522;2023-07-29T11:23:34;97209.38;;;31.95;32.80
81224;BME280;70698;44.402;18.522;2023-07-29T11:26:01;97212.44;;;32.02;33.16
81224;BME280;70698;44.402;18.522;2023-07-29T11:28:27;97206.84;;;32.51;34.16
81224;BME280;70698;44.402;18.522;2023-07-29T11:30:55;97207.84;;;32.20;33.83
81224;BME280;70698;44.402;18.522;2023-07-29T11:33:27;97199.97;;;32.19;32.57
81224;BME280;70698;44.402;18.522;2023-07-29T11:35:54;97203.50;;;32.19;33.61
81224;BME280;70698;44.402;18.522;2023-07-29T11:38:21;97190.84;;;32.66;34.99
81224;BME280;70698;44.402;18.522;2023-07-29T11:40:58;97201.38;;;32.85;33.86
81224;BME280;70698;44.402;18.522;2023-07-29T11:43:24;97198.78;;;32.88;32.83
81224;BME280;70698;44.402;18.522;2023-07-29T11:45:51;97198.53;;;32.64;32.75
81224;BME280;70698;44.402;18.522;2023-07-29T11:48:16;97205.25;;;32.41;32.38
81224;BME280;70698;44.402;18.522;2023-07-29T11:50:42;97199.75;;;32.84;32.25
81224;BME280;70698;44.402;18.522;2023-07-29T11:53:08;97207.31;;;32.87;31.47
81224;BME280;70698;44.402;18.522;2023-07-29T11:55:34;97199.97;;;33.25;31.42
81224;BME280;70698;44.402;18.522;2023-07-29T11:58:01;97197.22;;;32.87;32.01
81224;BME280;70698;44.402;18.522;2023-07-29T12:00:27;97203.94;;;32.81;35.30
81224;BME280;70698;44.402;18.522;2023-07-29T12:02:53;97198.66;;;32.59;32.81
81224;BME280;70698;44.402;18.522;2023-07-29T12:05:20;97196.91;;;31.29;33.30
81224;BME280;70698;44.402;18.522;2023-07-29T12:07:46;97193.91;;;30.47;35.54
81224;BME280;70698;44.402;18.522;2023-07-29T12:10:13;97191.28;;;31.56;34.62
81224;BME280;70698;44.402;18.522;2023-07-29T12:12:46;97191.16;;;31.87;34.05
81224;BME280;70698;44.402;18.522;2023-07-29T12:15:12;97176.00;;;32.29;34.28
81224;BME280;70698;44.402;18.522;2023-07-29T12:17:41;97165.91;;;32.47;33.47
81224;BME280;70698;44.402;18.522;2023-07-29T12:20:10;97179.31;;;32.69;33.72
81224;BME280;70698;44.402;18.522;2023-07-29T12:22:36;97169.72;;;33.10;34.83
81224;BME280;70698;44.402;18.522;2023-07-29T12:25:02;97181.50;;;33.90;31.96
81224;BME280;70698;44.402;18.522;2023-07-29T12:27:30;97179.97;;;33.80;32.80
81224;BME280;70698;44.402;18.522;2023-07-29T12:29:55;97181.88;;;33.21;31.79
81224;BME280;70698;44.402;18.522;2023-07-29T12:32:25;97170.75;;;32.97;32.49
81224;BME280;70698;44.402;18.522;2023-07-29T12:34:53;97173.56;;;32.71;33.96
81224;BME280;70698;44.402;18.522;2023-07-29T12:37:19;97172.81;;;33.38;33.24
81224;BME280;70698;44.402;18.522;2023-07-29T12:39:44;97180.69;;;33.89;31.22
81224;BME280;70698;44.402;18.522;2023-07-29T12:42:10;97169.31;;;33.37;30.73
81224;BME280;70698;44.402;18.522;2023-07-29T12:44:37;97170.53;;;33.10;32.43
81224;BME280;70698;44.402;18.522;2023-07-29T12:47:05;97172.03;;;34.49;30.51
81224;BME280;70698;44.402;18.522;2023-07-29T12:49:31;97168.34;;;33.92;30.70
81224;BME280;70698;44.402;18.522;2023-07-29T12:51:57;97176.47;;;34.75;31.03